aviador You're here:

KTVR Decoded Metar

TALLULAH/VICKSBU in LA, USA
Report Time2017-06-25 12:53:00
UTC Time2017-06-25 13:58:16
Flight Rules vfr VFR
Wind030° at 10 Gusting to 15 kt
W.Decomp.*RWY 36: 8.8 kt HW 4.7 kt RCW
W.Rank030° ranks 10
Current wind is above 030° avg. (7.0)
Visibility9999 m
Phenomena:N/A
Clouds:Broken 080 Hf
Overcast 100 Hf
Expected CloudBase > 1,200 ft AGL from Temp-Dew spread
Ceiling8,000 ft
Temp22°C (ISA +7)
Dew Point19°C (83% RH)
AAT21.6°C
QNH1023 hPa
Density Alt876 ft
Elevation85 ft
Report Wrong Elevation
Raw Report
KTVR 251253Z AUTO 03010G15KT 10SM BKN080 OVC100 22/19 A3020 RMK
AO2 SLP231 T02220189=

Extra information for KTVR:More info

Metar Taf Metar & Taf Last 4 Metars F.Rules Stats Wind Profile Meteogram Temp Stats Airport Information Weather charts Add Link Nearby VenuesMetar ALERT Operation Metar Decoded Social comments

AIRNAV info for KTVR